Flight Track Log - Related Links

Times and Time Zones

All times are in EDT time to prevent confusion due to time zone crossing. See the SKW4764 flight status page for this flight to view local times or setup timezone preferences in your user account.

Time Position Orientation Groundspeed Altitude Reporting Facility
EDT Latitude Longitude Course Direction KTS MPH feet Rate Location/Type
Fri 07:37:25 PM 46.9336 -114.1222 198° South 150 173 4,200  Level Salt Lake Center
Fri 07:38:27 PM 46.9692 -114.1850 310° West 199 229 6,800 2,613 Climbing Salt Lake Center
Fri 07:39:29 PM 46.9753 -114.2661 276° West 236 272 9,600 2,585 Climbing Salt Lake Center
Fri 07:40:00 PM 46.5298 -113.9432 180° South  Level Estimated
Fri 07:40:30 PM 46.9028 -114.2903 193° South 267 307 12,100  Level Salt Lake Center
Fri 07:41:00 PM 46.4332 -113.9067 180° South  Level Estimated
Fri 07:41:32 PM 46.8203 -114.2783 174° South 301 346 13,800  Level Salt Lake Center
Fri 07:42:00 PM 46.3381 -113.9508 198° South  Level FlightAware Approximate
Fri 07:42:34 PM 46.7214 -114.2425 166° South 342 394 15,400  Level Salt Lake Center
Fri 07:43:36 PM 46.6208 -114.2050 166° South 372 428 17,100 1,463 Climbing Salt Lake Center
Fri 07:44:37 PM 46.5092 -114.1608 165° South 387 445 18,400 1,415 Climbing Salt Lake Center
Fri 07:45:39 PM 46.4011 -114.1206 166° South 402 463 20,000 1,403 Climbing Salt Lake Center
Fri 07:46:41 PM 46.2931 -114.0814 166° South 406 467 21,300 1,113 Climbing Salt Lake Center
Fri 07:47:43 PM 46.1814 -114.0433 167° South 414 476 22,300 878 Climbing Salt Lake Center
Fri 07:48:44 PM 46.0650 -113.9972 165° South 428 493 23,100 829 Climbing Salt Lake Center
Fri 07:49:46 PM 45.9461 -113.9572 167° South 438 504 24,000 823 Climbing Salt Lake Center
Fri 07:50:48 PM 45.8247 -113.9128 166° South 449 517 24,800 878 Climbing Salt Lake Center
Fri 07:51:49 PM 45.6775 -113.8594 166° South 454 522 25,800 927 Climbing Salt Lake Center
Fri 07:52:51 PM 45.5669 -113.8222 167° South 456 525 26,700 823 Climbing Salt Lake Center
Fri 07:53:53 PM 45.4458 -113.7783 166° South 451 519 27,500 677 Climbing Salt Lake Center
Fri 07:54:55 PM 45.2989 -113.7283 167° South 453 521 28,100 634 Climbing Salt Lake Center
Fri 07:55:56 PM 45.1786 -113.6861 166° South 462 532 28,800 683 Climbing Salt Lake Center
Fri 07:56:58 PM 45.0597 -113.6436 166° South 461 531 29,500 726 Climbing Salt Lake Center
Fri 07:58:00 PM 44.9211 -113.5950 166° South 460 529 30,300 585 Climbing Salt Lake Center
Fri 07:59:01 PM 44.8003 -113.5550 167° South 466 536 30,700 341 Climbing Salt Lake Center
Fri 08:00:03 PM 44.6600 -113.5053 166° South 465 535 31,000 146 Climbing Salt Lake Center
Fri 08:01:04 PM 44.5419 -113.4639 166° South 462 532 31,000  Level Salt Lake Center
Fri 08:02:06 PM 44.4042 -113.4169 166° South 459 528 31,000  Level Salt Lake Center
Fri 08:03:08 PM 44.2858 -113.3769 166° South 458 527 31,000  Level Salt Lake Center
Fri 08:04:09 PM 44.1669 -113.3369 166° South 459 528 31,000  Level Salt Lake Center
Fri 08:05:11 PM 44.0264 -113.2906 167° South 464 534 31,000  Level Salt Lake Center
Fri 08:06:12 PM 43.9069 -113.2511 167° South 459 528 31,000  Level Salt Lake Center
Fri 08:07:14 PM 43.7694 -113.2042 166° South 458 527 31,000  Level Salt Lake Center
Fri 08:08:15 PM 43.6519 -113.1647 166° South 455 524 31,000  Level Salt Lake Center
Fri 08:09:17 PM 43.5158 -113.1203 167° South 452 520 31,000  Level Salt Lake Center
Fri 08:10:18 PM 43.3992 -113.0814 166° South 451 519 31,000  Level Salt Lake Center
Fri 08:11:20 PM 43.2819 -113.0444 167° South 451 519 31,000  Level Salt Lake Center
Fri 08:12:21 PM 43.1414 -112.9967 166° South 461 531 31,000 -390 Level Salt Lake Center
Fri 08:13:23 PM 43.0203 -112.9603 168° South 465 535 30,200 -488 Descending Salt Lake Center
Fri 08:14:24 PM 42.8708 -112.9114 167° South 487 560 30,000 -98 Descending Salt Lake Center
Fri 08:15:26 PM 42.7464 -112.8706 166° South 483 556 30,000  Level Salt Lake Center
Fri 08:16:27 PM 42.6028 -112.8236 166° South 476 548 30,000  Level Salt Lake Center
Fri 08:17:29 PM 42.4778 -112.7850 167° South 465 535 30,000  Level Salt Lake Center
Fri 08:18:30 PM 42.3539 -112.7450 167° South 461 531 30,000 -976 Level Salt Lake Center
Fri 08:19:32 PM 42.2325 -112.7081 167° South 450 518 28,000 -1,951 Descending Salt Lake Center
Fri 08:20:33 PM 42.1136 -112.6714 167° South 441 507 26,000 -1,967 Descending Salt Lake Center
Fri 08:21:34 PM 41.9997 -112.6350 167° South 427 491 24,000 -1,951 Descending Salt Lake Center
Fri 08:22:36 PM 41.8886 -112.5997 167° South 415 478 22,000 -1,951 Descending Salt Lake Center
Fri 08:23:37 PM 41.7742 -112.5644 167° South 420 483 20,000 -2,063 Descending Salt Lake Center
Fri 08:24:12 PM 41.6958 -112.5311 162° South 416 479 18,700 -1,935 Descending Salt Lake Center
Fri 08:24:39 PM 41.6400 -112.5239 174° South 415 478 18,000 -1,355 Descending Salt Lake Center
Fri 08:24:43 PM 41.6436 -112.5169 55° Northeast 411 473 18,000 -1,082 Level Salt Lake Center
Fri 08:25:40 PM 41.5347 -112.4892 169° South 394 453 16,900 -1,180 Descending Salt Lake Center
Fri 08:25:44 PM 41.5308 -112.4775 114° Southeast 395 455 16,800 -1,258 Descending Salt Lake Center
Fri 08:26:42 PM 41.4442 -112.4164 152° Southeast 381 438 15,600 -1,300 Descending Salt Lake Center
Fri 08:26:44 PM 41.4403 -112.4081 122° Southeast 382 440 15,500 -1,279 Descending Salt Lake Center
Fri 08:27:43 PM 41.3503 -112.3506 154° Southeast 383 441 14,300 -1,279 Descending Salt Lake Center
Fri 08:27:45 PM 41.3461 -112.3425 125° Southeast 381 438 14,200 -1,161 Descending Salt Lake Center
Fri 08:28:45 PM 41.2628 -112.2875 154° Southeast 363 418 13,100 -1,180 Descending Salt Lake Center
Fri 08:28:46 PM 41.2569 -112.2814 142° Southeast 364 419 13,000 -98 Descending Salt Lake Center
Fri 08:29:46 PM 41.1764 -112.2244 152° Southeast 357 411 13,000  Level Salt Lake Center
Fri 08:29:47 PM 41.1714 -112.2164 130° Southeast 357 411 13,000  Level Salt Lake Center
Fri 08:30:48 PM 41.0817 -112.1528 152° Southeast 365 420 13,000 -195 Level Salt Lake Center
Fri 08:31:50 PM 40.9753 -112.1256 169° South 353 406 12,600 -992 Descending Salt Lake Center
Fri 08:32:49 PM 40.8856 -112.1083 172° South 333 383 11,000 -1,574 Descending Salt Lake Center
Fri 08:32:51 PM 40.8856 -112.1072 90° East 331 381 11,000 -295 Level Salt Lake Center
Fri 08:33:50 PM 40.8114 -112.1025 177° South 258 297 10,700 -290 Descending Salt Lake Center
Fri 08:33:53 PM 40.8106 -112.0989 107° East 266 306 10,700 -1,574 Level Salt Lake Center
Fri 08:34:51 PM 40.7383 -112.0931 176° South 251 289 9,100 -1,475 Descending Salt Lake Center
Fri 08:34:54 PM 40.7422 -112.0908 23° Northeast 250 288 9,200 -295 Climbing Salt Lake Center
Fri 08:35:52 PM 40.6722 -112.0844 176° South 234 269 8,800 -387 Descending Salt Lake Center
Fri 08:35:56 PM 40.6772 -112.0819 21° North 235 270 8,800 -590 Level Salt Lake Center
Fri 08:36:53 PM 40.6331 -112.0383 143° Southeast 223 257 8,200 -492 Descending Salt Lake Center
Fri 08:36:57 PM 40.6314 -112.0386 187° South 225 259 8,300 -1,574 Climbing Salt Lake Center
Fri 08:37:54 PM 40.6667 -111.9900 46° Northeast 187 215 6,600 -1,839 Descending Salt Lake Center
Fri 08:37:59 PM 40.6747 -111.9853 24° Northeast 190 219 6,400 -984 Descending Salt Lake Center
Fri 08:38:55 PM 40.7094 -111.9897 354° North 158 182 5,600 -885 Descending Salt Lake Center
Fri 08:39:00 PM 40.7164 -111.9886 North 152 175 5,500 -896 Descending Salt Lake Center
Fri 08:40:02 PM 40.7578 -111.9931 355° North 149 171 4,600 -634 Descending Salt Lake Center
Fri 08:41:03 PM 40.7950 -111.9964 356° North 141 162 4,200 -393 Descending Salt Lake Center

Login

Don't have an account? Register now (free) for customized features, flight alerts, and more!